Time;durP1;ratioP1;P1;durP2;ratioP2;P2;SDS_P1;SDS_P2;PMS_P1;PMS_P2;Temp;Humidity;BMP_temperature;BMP_pressure;BME280_temperature;BME280_humidity;BME280_pressure;Samples;Min_cycle;Max_cycle;Signal;HPM_P1;HPM_P2
2023/03/20 00:02:17;;;;;;;1.52;0.68;;;9.10;99.90;;;;;;5052600;28;20394;-82
2023/03/20 00:04:44;;;;;;;1.27;0.85;;;9.10;99.90;;;;;;5043287;28;20084;-81
2023/03/20 00:07:11;;;;;;;1.02;0.75;;;9.00;99.90;;;;;;5055962;28;20551;-81
2023/03/20 00:09:38;;;;;;;1.40;0.70;;;9.00;99.90;;;;;;5050888;28;20089;-81
2023/03/20 00:12:05;;;;;;;1.27;0.55;;;9.00;99.90;;;;;;5070149;28;20156;-81
2023/03/20 00:14:32;;;;;;;1.02;0.68;;;9.00;99.90;;;;;;5032039;28;20509;-81
2023/03/20 00:16:59;;;;;;;1.38;0.77;;;8.90;99.90;;;;;;5045321;28;20052;-81
2023/03/20 00:19:30;;;;;;;1.60;0.75;;;8.90;99.90;;;;;;5040530;28;20052;-81
2023/03/20 00:21:57;;;;;;;1.67;0.70;;;8.90;99.90;;;;;;5052630;28;20612;-81
2023/03/20 00:24:24;;;;;;;2.50;1.05;;;8.80;99.90;;;;;;5031583;28;20137;-81
2023/03/20 00:26:51;;;;;;;1.27;0.80;;;8.80;99.90;;;;;;5053950;28;20062;-81
2023/03/20 00:29:21;;;;;;;1.08;0.60;;;8.80;99.90;;;;;;5059003;28;20415;-79
2023/03/20 00:31:48;;;;;;;1.38;0.77;;;8.80;99.90;;;;;;5054367;28;20424;-80
2023/03/20 00:34:16;;;;;;;1.52;0.57;;;8.80;99.90;;;;;;5049828;28;20462;-81
2023/03/20 00:36:43;;;;;;;1.55;0.70;;;8.70;99.90;;;;;;5040520;28;20131;-80
2023/03/20 00:39:10;;;;;;;2.33;0.80;;;8.80;99.90;;;;;;5043452;28;20163;-81
2023/03/20 00:41:49;;;;;;;1.77;0.98;;;8.80;99.90;;;;;;5073006;28;20040;-81
2023/03/20 00:44:36;;;;;;;1.38;0.68;;;8.80;99.90;;;;;;5054787;28;20139;-81
2023/03/20 00:47:11;;;;;;;1.77;0.80;;;8.80;99.90;;;;;;5042284;28;20400;-81
2023/03/20 00:49:39;;;;;;;1.80;0.70;;;8.80;99.90;;;;;;5064372;28;20147;-81
2023/03/20 00:52:05;;;;;;;1.13;0.57;;;8.80;99.90;;;;;;5023568;28;20529;-81
2023/03/20 00:54:32;;;;;;;1.55;0.70;;;8.80;99.90;;;;;;5047996;28;20429;-81
2023/03/20 00:57:02;;;;;;;1.10;0.73;;;8.80;99.90;;;;;;5077846;28;20062;-81
2023/03/20 00:59:34;;;;;;;1.35;0.60;;;8.80;99.90;;;;;;5077483;28;20499;-81
2023/03/20 01:02:01;;;;;;;1.20;0.60;;;8.80;99.90;;;;;;5040259;28;20497;-81
2023/03/20 01:04:35;;;;;;;2.05;0.80;;;8.80;99.90;;;;;;5027638;28;20044;-81
2023/03/20 01:07:03;;;;;;;2.65;0.60;;;8.80;99.90;;;;;;5060426;28;20044;-81
2023/03/20 01:09:29;;;;;;;1.30;0.73;;;8.80;99.90;;;;;;5040773;28;20225;-81
2023/03/20 01:11:58;;;;;;;1.90;0.65;;;8.80;99.90;;;;;;5048586;28;20356;-80
2023/03/20 01:14:25;;;;;;;2.13;0.88;;;8.90;99.90;;;;;;5053556;28;20141;-81
2023/03/20 01:16:52;;;;;;;1.30;0.75;;;8.90;99.90;;;;;;5056281;28;20064;-81
2023/03/20 01:19:19;;;;;;;1.25;0.80;;;8.90;99.90;;;;;;5078608;28;20291;-80
2023/03/20 01:21:45;;;;;;;0.90;0.55;;;8.90;99.90;;;;;;5076766;28;20147;-81
2023/03/20 01:24:12;;;;;;;1.17;0.60;;;8.90;99.90;;;;;;5077865;28;20146;-81
2023/03/20 01:26:41;;;;;;;1.80;0.65;;;8.90;99.90;;;;;;5052322;28;20134;-81
2023/03/20 01:29:20;;;;;;;0.93;0.57;;;8.90;99.90;;;;;;5058926;28;20048;-82
2023/03/20 01:31:48;;;;;;;2.10;1.00;;;8.90;99.90;;;;;;5070399;28;20438;-81
2023/03/20 01:34:17;;;;;;;1.60;0.70;;;8.90;99.90;;;;;;5049888;28;20143;-80
2023/03/20 01:36:54;;;;;;;1.33;0.52;;;8.90;99.90;;;;;;5071173;28;20090;-81
2023/03/20 01:39:23;;;;;;;1.85;0.88;;;8.90;99.90;;;;;;5048241;28;20056;-81
2023/03/20 01:41:50;;;;;;;1.52;0.80;;;8.90;99.90;;;;;;5061321;28;20294;-81
2023/03/20 01:44:21;;;;;;;1.48;0.60;;;8.90;99.90;;;;;;5053194;28;20132;-81
2023/03/20 01:46:49;;;;;;;1.00;0.50;;;9.00;99.90;;;;;;5062548;28;20056;-81
2023/03/20 01:49:19;;;;;;;1.42;0.70;;;9.00;99.90;;;;;;5044568;28;20131;-81
2023/03/20 01:51:46;;;;;;;0.70;0.43;;;9.00;99.90;;;;;;5080146;28;20056;-81
2023/03/20 01:54:34;;;;;;;2.78;1.10;;;9.00;99.90;;;;;;5071520;28;20131;-81
2023/03/20 01:57:16;;;;;;;1.35;0.73;;;8.90;99.90;;;;;;5063957;28;20199;-81
2023/03/20 01:59:50;;;;;;;1.73;0.75;;;9.00;99.90;;;;;;5081793;28;20048;-81
2023/03/20 02:02:20;;;;;;;0.98;0.52;;;9.00;99.90;;;;;;5064623;28;20785;-81
2023/03/20 02:04:49;;;;;;;2.17;0.70;;;9.00;99.90;;;;;;5047985;28;20040;-81
2023/03/20 02:07:16;;;;;;;0.80;0.70;;;9.00;99.90;;;;;;5047290;28;20533;-81
2023/03/20 02:09:43;;;;;;;0.55;0.45;;;9.00;99.90;;;;;;5047822;28;20051;-81
2023/03/20 02:12:10;;;;;;;1.25;0.63;;;9.00;99.90;;;;;;5044475;28;20147;-81
2023/03/20 02:14:36;;;;;;;0.88;0.60;;;9.00;99.90;;;;;;5044830;28;20594;-81
2023/03/20 02:17:04;;;;;;;1.92;0.50;;;9.00;99.90;;;;;;5047904;28;20155;-82
2023/03/20 02:19:43;;;;;;;1.58;0.80;;;9.00;99.90;;;;;;5067766;28;20105;-81
2023/03/20 02:22:12;;;;;;;1.65;0.60;;;9.00;99.90;;;;;;5079115;28;20399;-81
2023/03/20 02:25:37;;;;;;;0.82;0.40;;;9.00;99.90;;;;;;5081711;28;20105;-82
2023/03/20 02:28:25;;;;;;;1.92;0.73;;;9.00;99.90;;;;;;4979957;28;20046;-81
2023/03/20 02:31:22;;;;;;;1.13;0.70;;;9.00;99.90;;;;;;4986860;28;20042;-81
2023/03/20 02:34:01;;;;;;;1.70;0.63;;;9.00;99.90;;;;;;5052687;28;20067;-81
2023/03/20 02:36:35;;;;;;;2.83;0.90;;;9.00;99.90;;;;;;5065322;28;20086;-81
2023/03/20 02:39:39;;;;;;;1.90;0.95;;;9.00;99.90;;;;;;5056145;28;20139;-81
2023/03/20 02:42:08;;;;;;;1.77;0.90;;;8.90;99.90;;;;;;5074711;28;20171;-81
2023/03/20 02:44:39;;;;;;;2.05;0.90;;;8.90;99.90;;;;;;5068300;28;20050;-81
2023/03/20 02:47:13;;;;;;;1.08;0.52;;;8.90;99.90;;;;;;5083705;28;20360;-80
2023/03/20 02:50:16;;;;;;;2.95;1.15;;;8.90;99.90;;;;;;5083481;28;20055;-81
2023/03/20 02:52:57;;;;;;;1.15;0.68;;;8.90;99.90;;;;;;5083492;28;20239;-81
2023/03/20 02:55:36;;;;;;;1.58;0.90;;;8.90;99.90;;;;;;5066529;28;20053;-81
2023/03/20 02:58:23;;;;;;;2.35;0.60;;;8.80;99.90;;;;;;5066876;28;20064;-81
2023/03/20 03:00:58;;;;;;;4.72;1.05;;;8.70;99.90;;;;;;5098259;28;20040;-81
2023/03/20 03:03:33;;;;;;;1.33;0.55;;;8.70;99.90;;;;;;5057761;28;20059;-80
2023/03/20 03:06:33;;;;;;;3.75;1.00;;;8.70;99.90;;;;;;5080754;28;20048;-80
2023/03/20 03:09:28;;;;;;;1.50;0.65;;;8.70;99.90;;;;;;5050971;28;20084;-80
2023/03/20 03:12:03;;;;;;;2.17;0.82;;;8.70;99.90;;;;;;5062563;28;20122;-80
2023/03/20 03:14:50;;;;;;;2.15;0.80;;;8.80;99.90;;;;;;5064122;28;20040;-80
2023/03/20 03:17:17;;;;;;;1.20;0.60;;;8.80;99.90;;;;;;5081689;28;20048;-81
2023/03/20 03:19:51;;;;;;;3.78;1.25;;;8.80;99.90;;;;;;5082868;28;20479;-80
2023/03/20 03:22:18;;;;;;;2.83;0.80;;;8.80;99.90;;;;;;5056556;28;20056;-80
2023/03/20 03:24:46;;;;;;;1.92;1.05;;;8.90;99.90;;;;;;5061174;28;20133;-81
2023/03/20 03:27:39;;;;;;;2.10;1.13;;;8.90;99.90;;;;;;5075900;28;20043;-81
2023/03/20 03:30:14;;;;;;;1.48;0.90;;;8.90;99.90;;;;;;5067750;28;20044;-81
2023/03/20 03:32:45;;;;;;;1.95;1.00;;;8.90;99.90;;;;;;5083759;28;20137;-81
2023/03/20 03:35:17;;;;;;;2.65;1.00;;;8.90;99.90;;;;;;5065415;28;20402;-79
2023/03/20 03:37:59;;;;;;;2.88;1.15;;;8.90;99.90;;;;;;5053769;28;20054;-80
2023/03/20 03:40:29;;;;;;;2.47;0.90;;;8.90;99.90;;;;;;5050153;28;20696;-80
2023/03/20 03:43:02;;;;;;;3.30;1.13;;;9.00;99.90;;;;;;5070696;28;20048;-80
2023/03/20 03:45:37;;;;;;;3.88;1.20;;;9.00;99.90;;;;;;5059747;28;20127;-81
2023/03/20 03:48:14;;;;;;;2.33;1.30;;;8.90;99.90;;;;;;5049108;28;20048;-80
2023/03/20 03:50:47;;;;;;;2.63;1.00;;;9.00;99.90;;;;;;5066684;28;20052;-81
2023/03/20 03:53:21;;;;;;;4.53;1.30;;;9.00;99.90;;;;;;5031227;28;20571;-80
2023/03/20 03:55:50;;;;;;;3.97;1.83;;;9.00;99.90;;;;;;5045945;28;20036;-81
2023/03/20 03:58:25;;;;;;;3.38;1.20;;;9.00;99.90;;;;;;5046328;28;20052;-80
2023/03/20 04:00:52;;;;;;;3.80;1.27;;;9.00;99.90;;;;;;5046585;28;20051;-80
2023/03/20 04:03:22;;;;;;;1.80;0.90;;;9.00;99.90;;;;;;5065272;28;20055;-80
2023/03/20 04:05:49;;;;;;;2.20;0.90;;;9.10;99.90;;;;;;5050940;28;20063;-80
2023/03/20 04:08:16;;;;;;;4.60;1.20;;;9.10;99.90;;;;;;5031976;28;20052;-81
2023/03/20 04:10:42;;;;;;;4.22;1.42;;;9.10;99.90;;;;;;5049942;28;20048;-80
2023/03/20 04:13:10;;;;;;;2.33;0.73;;;9.10;99.90;;;;;;5045794;28;20044;-80
2023/03/20 04:15:37;;;;;;;4.05;1.20;;;9.10;99.90;;;;;;5065247;28;20056;-80
2023/03/20 04:18:04;;;;;;;4.07;1.05;;;9.10;99.90;;;;;;5064724;28;20052;-81
2023/03/20 04:20:31;;;;;;;3.78;1.10;;;9.10;99.90;;;;;;5064501;28;20436;-80
2023/03/20 04:22:58;;;;;;;5.60;1.23;;;9.10;99.90;;;;;;5044027;28;20200;-81
2023/03/20 04:25:25;;;;;;;1.65;1.05;;;9.10;99.90;;;;;;5067827;28;20124;-81
2023/03/20 04:27:52;;;;;;;2.20;0.80;;;9.10;99.90;;;;;;5061359;28;20063;-80
2023/03/20 04:30:19;;;;;;;3.70;1.00;;;9.10;99.90;;;;;;5082586;28;20062;-81
2023/03/20 04:32:46;;;;;;;2.95;1.30;;;9.10;99.90;;;;;;5057300;28;20052;-79
2023/03/20 04:35:13;;;;;;;3.25;0.85;;;9.10;99.90;;;;;;5064542;28;20040;-80
2023/03/20 04:37:39;;;;;;;3.50;1.20;;;9.10;99.90;;;;;;5050742;28;20063;-80
2023/03/20 04:40:07;;;;;;;5.40;1.15;;;9.10;99.90;;;;;;5045039;28;20625;-80
2023/03/20 04:42:33;;;;;;;3.95;0.98;;;9.10;99.90;;;;;;5037290;28;20418;-80
2023/03/20 04:45:00;;;;;;;4.80;1.27;;;9.10;99.90;;;;;;5080916;28;20113;-80
2023/03/20 04:47:27;;;;;;;3.72;1.55;;;9.10;99.90;;;;;;5082940;28;20047;-81
2023/03/20 04:49:54;;;;;;;1.48;0.75;;;9.10;99.90;;;;;;5077724;28;20485;-82
2023/03/20 04:52:20;;;;;;;3.78;1.00;;;9.10;99.90;;;;;;5081981;28;20056;-81
2023/03/20 04:54:47;;;;;;;2.10;0.85;;;9.10;99.90;;;;;;5081541;28;20059;-83
2023/03/20 04:57:15;;;;;;;2.17;0.90;;;9.10;99.90;;;;;;5082556;28;20060;-82
2023/03/20 04:59:42;;;;;;;1.98;0.80;;;9.10;99.90;;;;;;5079093;28;20078;-81
2023/03/20 05:02:13;;;;;;;1.80;0.77;;;9.10;99.90;;;;;;5038547;28;20352;-81
2023/03/20 05:04:41;;;;;;;2.33;0.80;;;9.10;99.90;;;;;;5066604;28;20498;-82
2023/03/20 05:07:08;;;;;;;3.75;1.20;;;9.10;99.90;;;;;;5059234;28;20072;-82
2023/03/20 05:09:35;;;;;;;3.42;1.25;;;9.10;99.90;;;;;;5048376;28;20049;-82
2023/03/20 05:12:02;;;;;;;3.28;1.00;;;9.20;99.90;;;;;;5065565;28;20090;-81
2023/03/20 05:14:29;;;;;;;1.33;0.77;;;9.10;99.90;;;;;;5067102;28;20045;-81
2023/03/20 05:16:55;;;;;;;3.25;1.00;;;9.20;99.90;;;;;;5056232;28;20560;-82
2023/03/20 05:19:22;;;;;;;2.45;1.00;;;9.20;99.90;;;;;;5084132;28;20044;-82
2023/03/20 05:21:49;;;;;;;2.40;0.88;;;9.20;99.90;;;;;;5081528;28;20483;-81
2023/03/20 05:24:16;;;;;;;3.55;1.38;;;9.20;99.90;;;;;;5067945;28;20075;-82
2023/03/20 05:26:43;;;;;;;3.83;1.08;;;9.20;99.90;;;;;;5068724;28;20071;-82
2023/03/20 05:29:09;;;;;;;3.03;1.00;;;9.20;99.90;;;;;;5068024;28;20407;-82
2023/03/20 05:31:37;;;;;;;2.55;1.08;;;9.30;99.90;;;;;;5036079;28;20094;-82
2023/03/20 05:34:04;;;;;;;3.95;1.15;;;9.30;99.90;;;;;;5069433;28;20054;-81
2023/03/20 05:36:31;;;;;;;2.83;0.70;;;9.30;99.90;;;;;;5052064;28;20168;-82
2023/03/20 05:38:57;;;;;;;2.28;0.98;;;9.30;99.90;;;;;;5068562;28;20562;-82
2023/03/20 05:41:24;;;;;;;1.40;0.65;;;9.30;99.90;;;;;;5068951;28;20105;-82
2023/03/20 05:43:51;;;;;;;3.78;0.95;;;9.30;99.90;;;;;;5051853;28;20086;-82
2023/03/20 05:46:18;;;;;;;2.13;0.80;;;9.30;99.90;;;;;;5087295;28;20052;-82
2023/03/20 05:48:44;;;;;;;4.38;1.33;;;9.30;99.90;;;;;;5068774;28;20052;-82
2023/03/20 05:51:11;;;;;;;2.45;1.15;;;9.30;99.90;;;;;;5086280;28;20626;-82
2023/03/20 05:53:38;;;;;;;3.33;1.60;;;9.30;99.90;;;;;;5085895;28;20087;-80
2023/03/20 05:56:05;;;;;;;2.67;1.30;;;9.30;99.90;;;;;;5068710;28;20631;-81
2023/03/20 05:58:32;;;;;;;2.97;1.00;;;9.30;99.90;;;;;;5052865;28;20067;-82
2023/03/20 06:00:59;;;;;;;3.85;1.60;;;9.30;99.90;;;;;;5087388;28;20047;-82
2023/03/20 06:03:25;;;;;;;2.42;1.00;;;9.30;99.90;;;;;;5061101;28;20071;-81
2023/03/20 06:05:52;;;;;;;4.72;1.15;;;9.30;99.90;;;;;;5065165;28;20048;-80
2023/03/20 06:08:19;;;;;;;2.80;1.05;;;9.30;99.90;;;;;;5077980;28;20055;-80
2023/03/20 06:10:48;;;;;;;2.22;1.05;;;9.40;99.90;;;;;;5073324;28;20090;-79
2023/03/20 06:13:15;;;;;;;2.85;1.30;;;9.40;99.90;;;;;;5065016;28;20056;-79
2023/03/20 06:15:42;;;;;;;3.45;1.00;;;9.40;99.90;;;;;;5058694;28;20487;-79
2023/03/20 06:18:09;;;;;;;3.22;1.13;;;9.40;99.90;;;;;;5064161;28;20592;-79
2023/03/20 06:20:35;;;;;;;2.55;1.00;;;9.40;99.90;;;;;;5052777;28;20047;-79
2023/03/20 06:23:02;;;;;;;2.58;1.10;;;9.40;99.90;;;;;;5079750;28;20168;-79
2023/03/20 06:25:29;;;;;;;3.75;1.50;;;9.50;99.90;;;;;;5060709;28;20120;-79
2023/03/20 06:27:56;;;;;;;2.45;0.95;;;9.40;99.90;;;;;;5080899;28;20056;-79
2023/03/20 06:30:23;;;;;;;3.60;1.30;;;9.50;99.90;;;;;;5076198;28;22058;-80
2023/03/20 06:32:50;;;;;;;2.75;1.10;;;9.50;99.90;;;;;;5078165;28;20127;-79
2023/03/20 06:35:17;;;;;;;5.45;1.42;;;9.50;99.90;;;;;;5045805;28;20055;-79
2023/03/20 06:37:44;;;;;;;5.38;1.50;;;9.60;99.90;;;;;;5058746;28;20054;-79
2023/03/20 06:40:10;;;;;;;6.55;1.52;;;9.60;99.90;;;;;;5044741;28;20044;-79
2023/03/20 06:42:37;;;;;;;4.28;1.52;;;9.60;99.90;;;;;;5044400;28;20824;-79
2023/03/20 06:45:05;;;;;;;2.25;1.00;;;9.60;99.90;;;;;;5079307;28;20052;-80
2023/03/20 06:47:32;;;;;;;4.28;1.15;;;9.60;99.90;;;;;;5061241;28;20055;-80
2023/03/20 06:49:59;;;;;;;2.20;0.82;;;9.70;99.90;;;;;;5077948;28;20428;-79
2023/03/20 06:52:25;;;;;;;7.35;1.42;;;9.70;99.90;;;;;;5079309;28;20479;-79
2023/03/20 06:54:52;;;;;;;3.00;1.10;;;9.70;99.90;;;;;;5080383;28;20052;-79
2023/03/20 06:57:19;;;;;;;2.45;1.15;;;9.80;99.90;;;;;;5055066;28;20048;-79
2023/03/20 06:59:46;;;;;;;3.28;1.08;;;9.80;99.90;;;;;;5076447;28;20145;-80
2023/03/20 07:02:13;;;;;;;2.65;1.05;;;9.80;99.90;;;;;;5072182;28;20070;-80
2023/03/20 07:04:40;;;;;;;3.22;1.13;;;9.80;99.90;;;;;;5079064;28;20051;-79
2023/03/20 07:07:07;;;;;;;4.50;1.33;;;9.90;99.90;;;;;;5077405;28;20136;-79
2023/03/20 07:09:35;;;;;;;2.90;1.25;;;9.90;99.90;;;;;;5048662;28;20135;-80
2023/03/20 07:12:03;;;;;;;4.07;1.38;;;9.90;99.90;;;;;;5063109;28;20068;-79
2023/03/20 07:14:30;;;;;;;4.00;1.35;;;9.90;99.90;;;;;;5062695;28;20043;-80
2023/03/20 07:16:57;;;;;;;4.20;1.73;;;10.00;99.90;;;;;;5051747;28;20208;-80
2023/03/20 07:19:24;;;;;;;2.95;1.10;;;10.00;99.90;;;;;;5078223;28;20137;-78
2023/03/20 07:21:54;;;;;;;5.03;1.45;;;10.00;99.90;;;;;;5079530;28;20139;-79
2023/03/20 07:24:21;;;;;;;3.05;1.27;;;10.00;99.90;;;;;;5046147;28;20066;-80
2023/03/20 07:26:47;;;;;;;3.40;1.48;;;10.10;99.90;;;;;;5045070;28;20479;-80
2023/03/20 07:29:15;;;;;;;4.75;1.38;;;10.10;99.90;;;;;;5059999;28;20476;-79
2023/03/20 07:31:42;;;;;;;2.67;1.23;;;10.10;99.90;;;;;;5061537;28;20136;-80
2023/03/20 07:34:09;;;;;;;3.03;1.35;;;10.20;99.90;;;;;;5074895;28;20051;-79
2023/03/20 07:36:36;;;;;;;2.95;1.13;;;10.20;99.90;;;;;;5050696;28;20056;-77
2023/03/20 07:39:03;;;;;;;4.68;1.33;;;10.20;99.90;;;;;;5026707;28;20052;-80
2023/03/20 07:41:30;;;;;;;5.30;1.45;;;10.20;99.90;;;;;;5077267;28;20151;-80
2023/03/20 07:43:57;;;;;;;5.47;1.50;;;10.20;99.90;;;;;;5023462;28;20053;-80
2023/03/20 07:46:25;;;;;;;2.15;1.02;;;10.30;99.90;;;;;;5059853;28;20062;-80
2023/03/20 07:48:51;;;;;;;2.45;1.10;;;10.30;99.90;;;;;;5047098;28;20097;-80
2023/03/20 07:51:18;;;;;;;2.53;1.00;;;10.30;99.90;;;;;;5071995;28;20130;-80
2023/03/20 07:53:45;;;;;;;2.25;0.90;;;10.40;99.90;;;;;;5054715;28;20050;-81
2023/03/20 07:56:12;;;;;;;2.80;1.10;;;10.50;99.90;;;;;;5057110;28;20062;-81
2023/03/20 07:58:39;;;;;;;4.13;1.23;;;10.50;99.90;;;;;;5057581;28;20074;-80
2023/03/20 08:01:05;;;;;;;2.42;1.00;;;10.60;99.90;;;;;;5057646;28;20084;-80
2023/03/20 08:03:32;;;;;;;1.73;1.02;;;10.70;99.90;;;;;;5038581;28;20048;-80
2023/03/20 08:06:00;;;;;;;1.70;0.95;;;10.70;99.90;;;;;;5070778;28;20051;-79
2023/03/20 08:08:27;;;;;;;2.40;1.05;;;10.80;99.90;;;;;;5073185;28;20144;-80
2023/03/20 08:10:54;;;;;;;2.08;1.10;;;10.90;99.90;;;;;;5077002;28;20044;-87
2023/03/20 08:13:24;;;;;;;2.28;1.00;;;11.00;99.90;;;;;;5078754;28;20051;-88
2023/03/20 08:15:54;;;;;;;1.70;1.10;;;11.10;99.90;;;;;;5077710;28;20147;-87
2023/03/20 08:18:23;;;;;;;1.25;0.73;;;11.10;99.90;;;;;;5059734;28;20053;-89
2023/03/20 08:20:53;;;;;;;3.97;1.60;;;11.20;99.90;;;;;;5062563;28;20052;-89
2023/03/20 08:23:20;;;;;;;1.90;0.88;;;11.20;99.90;;;;;;5063420;28;20064;-90
2023/03/20 08:25:50;;;;;;;2.80;1.23;;;11.20;99.90;;;;;;5080326;28;20219;-91
2023/03/20 08:28:17;;;;;;;2.83;1.17;;;11.20;99.90;;;;;;5048108;28;20060;-91
2023/03/20 08:30:44;;;;;;;2.95;1.02;;;11.30;99.90;;;;;;5082845;28;20463;-91
2023/03/20 08:33:11;;;;;;;3.78;1.30;;;11.20;99.90;;;;;;5047784;28;20048;-92
2023/03/20 08:35:38;;;;;;;3.15;1.30;;;11.20;99.90;;;;;;5067697;28;20047;-91
2023/03/20 08:38:05;;;;;;;2.80;1.20;;;11.30;99.90;;;;;;5067739;28;20118;-93
2023/03/20 08:40:32;;;;;;;3.40;1.40;;;11.30;99.90;;;;;;5052301;28;20075;-93
2023/03/20 08:42:58;;;;;;;1.55;1.05;;;11.50;99.90;;;;;;5084381;28;20085;-93
2023/03/20 08:45:25;;;;;;;1.92;1.08;;;11.50;99.90;;;;;;5086650;28;20051;-93
2023/03/20 08:47:52;;;;;;;2.55;1.40;;;11.40;99.90;;;;;;5069237;28;20136;-93
2023/03/20 08:50:19;;;;;;;2.60;1.15;;;11.40;99.90;;;;;;5089483;28;20143;-93
2023/03/20 08:52:46;;;;;;;3.70;1.50;;;11.50;99.90;;;;;;5088134;28;20139;-94
2023/03/20 08:55:13;;;;;;;3.10;1.60;;;11.50;99.90;;;;;;5084467;28;20059;-80
2023/03/20 08:57:40;;;;;;;2.20;1.17;;;11.50;99.90;;;;;;5083472;28;20131;-80
2023/03/20 09:00:08;;;;;;;1.92;1.08;;;11.50;99.90;;;;;;5049255;28;20548;-80
2023/03/20 09:02:35;;;;;;;3.30;1.25;;;11.60;99.90;;;;;;5049075;28;20044;-80
2023/03/20 09:05:02;;;;;;;2.03;1.33;;;11.50;99.90;;;;;;5065889;28;20052;-79
2023/03/20 09:07:29;;;;;;;1.92;0.93;;;11.60;99.90;;;;;;5043789;28;20132;-81
2023/03/20 09:09:55;;;;;;;1.70;1.00;;;11.70;99.90;;;;;;5057061;28;20071;-81
2023/03/20 09:12:22;;;;;;;2.08;1.08;;;11.80;99.90;;;;;;5077808;28;20074;-81
2023/03/20 09:14:49;;;;;;;3.10;1.13;;;11.80;99.90;;;;;;5076098;28;20071;-80
2023/03/20 09:17:16;;;;;;;1.70;1.00;;;11.90;99.90;;;;;;5054908;28;20074;-80
2023/03/20 09:19:43;;;;;;;1.30;0.75;;;11.90;99.90;;;;;;5075576;28;20144;-81
2023/03/20 09:22:13;;;;;;;1.92;0.80;;;11.90;99.90;;;;;;5058980;28;20048;-80
2023/03/20 09:24:40;;;;;;;1.83;0.85;;;12.00;99.90;;;;;;5074819;28;20511;-81
2023/03/20 09:27:07;;;;;;;2.05;0.90;;;11.90;99.90;;;;;;5079972;28;20052;-80
2023/03/20 09:29:34;;;;;;;2.85;0.77;;;11.90;99.90;;;;;;5080209;28;20052;-80
2023/03/20 09:32:01;;;;;;;1.33;0.52;;;12.00;99.90;;;;;;5080246;28;20048;-80
2023/03/20 09:34:28;;;;;;;1.40;0.50;;;12.20;99.90;;;;;;5082618;28;20156;-80
2023/03/20 09:36:55;;;;;;;1.95;0.50;;;12.30;99.90;;;;;;5082232;28;20063;-80
2023/03/20 09:39:22;;;;;;;1.75;0.75;;;12.40;99.90;;;;;;5064454;28;20051;-80
2023/03/20 09:41:49;;;;;;;0.98;0.60;;;12.40;99.90;;;;;;5065164;28;20308;-81
2023/03/20 09:44:36;;;;;;;1.38;0.70;;;12.50;99.90;;;;;;5065624;28;20071;-80
2023/03/20 09:47:09;;;;;;;1.77;0.80;;;12.50;99.90;;;;;;5049575;28;20044;-80
2023/03/20 09:50:04;;;;;;;3.13;0.70;;;12.40;99.90;;;;;;5082620;28;20127;-80
2023/03/20 09:52:52;;;;;;;0.95;0.60;;;12.50;99.90;;;;;;5082228;28;20159;-81
2023/03/20 09:55:22;;;;;;;0.82;0.50;;;12.50;99.90;;;;;;5069269;28;20044;-79
2023/03/20 09:57:51;;;;;;;0.80;0.68;;;12.50;99.90;;;;;;5064744;28;20046;-78
2023/03/20 10:00:19;;;;;;;0.60;0.60;;;12.60;99.90;;;;;;5048520;28;20116;-79
2023/03/20 10:02:58;;;;;;;0.65;0.47;;;12.50;99.90;;;;;;5064314;28;20056;-78
2023/03/20 10:05:59;;;;;;;0.95;0.80;;;12.50;99.90;;;;;;5066008;28;20131;-79
2023/03/20 10:08:28;;;;;;;0.47;0.45;;;12.60;99.90;;;;;;5037089;28;20052;-78
2023/03/20 10:11:06;;;;;;;0.50;0.50;;;12.60;99.90;;;;;;5048048;28;20101;-79
2023/03/20 10:13:52;;;;;;;0.93;0.50;;;12.70;99.90;;;;;;5048915;28;20503;-79
2023/03/20 10:16:40;;;;;;;0.80;0.70;;;13.00;99.90;;;;;;5049662;28;20486;-78
2023/03/20 10:19:37;;;;;;;1.27;0.77;;;13.10;99.90;;;;;;5064655;28;20405;-79
2023/03/20 10:22:25;;;;;;;0.80;0.50;;;13.30;99.90;;;;;;5056539;28;20056;-79
2023/03/20 10:25:10;;;;;;;1.00;0.60;;;13.30;99.90;;;;;;5082319;28;20083;-79
2023/03/20 10:27:42;;;;;;;2.65;0.80;;;13.40;99.90;;;;;;5082314;28;20052;-79
2023/03/20 10:30:30;;;;;;;0.90;0.57;;;13.30;99.90;;;;;;5064334;28;20220;-78
2023/03/20 10:33:25;;;;;;;1.13;0.65;;;13.30;99.90;;;;;;5082462;28;20054;-80
2023/03/20 10:35:59;;;;;;;1.25;0.50;;;13.10;99.90;;;;;;5029454;28;20098;-78
2023/03/20 10:38:28;;;;;;;1.42;0.63;;;13.10;99.90;;;;;;5063501;28;20063;-78
2023/03/20 10:40:56;;;;;;;1.17;0.70;;;13.10;99.90;;;;;;5081835;28;20123;-79
2023/03/20 10:43:32;;;;;;;1.02;0.63;;;13.10;99.90;;;;;;5047574;28;20201;-79
2023/03/20 10:46:17;;;;;;;0.90;0.70;;;13.10;99.90;;;;;;5064345;28;20048;-79
2023/03/20 10:48:51;;;;;;;1.25;0.63;;;13.10;99.90;;;;;;5049094;28;20507;-79
2023/03/20 10:51:20;;;;;;;1.55;0.75;;;12.80;99.90;;;;;;5047689;28;20321;-79
2023/03/20 10:53:51;;;;;;;1.63;0.50;;;12.70;99.90;;;;;;5047248;28;20060;-79
2023/03/20 10:56:29;;;;;;;0.57;0.45;;;12.60;99.90;;;;;;5047662;28;20048;-79
2023/03/20 10:59:21;;;;;;;1.13;0.65;;;12.50;99.90;;;;;;5048500;28;20135;-79
2023/03/20 11:01:48;;;;;;;1.23;0.60;;;12.50;99.90;;;;;;5028067;28;20483;-79
2023/03/20 11:04:15;;;;;;;1.05;0.70;;;12.60;99.90;;;;;;5081238;28;20059;-79
2023/03/20 11:07:05;;;;;;;0.90;0.47;;;12.50;99.90;;;;;;5080679;28;20044;-79
2023/03/20 11:09:32;;;;;;;0.70;0.47;;;12.60;99.90;;;;;;5080567;28;20147;-79
2023/03/20 11:12:00;;;;;;;1.20;0.57;;;12.60;99.90;;;;;;5080824;28;20081;-79
2023/03/20 11:14:32;;;;;;;1.60;0.70;;;12.70;99.90;;;;;;5043326;28;20064;-79
2023/03/20 11:17:00;;;;;;;1.57;0.50;;;12.70;99.90;;;;;;5043904;28;20143;-79
2023/03/20 11:19:27;;;;;;;1.05;0.60;;;12.70;99.90;;;;;;5043679;28;20816;-79
2023/03/20 11:21:57;;;;;;;0.45;0.40;;;12.60;99.90;;;;;;5043287;28;20048;-79
2023/03/20 11:24:44;;;;;;;0.60;0.35;;;12.70;99.90;;;;;;5062316;28;20556;-78
2023/03/20 11:27:16;;;;;;;0.32;0.32;;;12.70;99.90;;;;;;5080868;28;20079;-79
2023/03/20 11:29:45;;;;;;;0.85;0.50;;;12.80;99.90;;;;;;5047510;28;20107;-78
2023/03/20 11:32:15;;;;;;;0.75;0.25;;;12.80;99.90;;;;;;5047101;28;20209;-78
2023/03/20 11:34:42;;;;;;;0.68;0.50;;;12.70;99.90;;;;;;5081025;28;20559;-79
2023/03/20 11:37:27;;;;;;;1.02;0.60;;;12.70;99.90;;;;;;5080259;28;20121;-78
2023/03/20 11:40:16;;;;;;;0.85;0.55;;;12.70;99.90;;;;;;5063169;28;20056;-79
2023/03/20 11:43:22;;;;;;;0.73;0.45;;;12.80;99.90;;;;;;5046534;28;20044;-79
2023/03/20 11:45:59;;;;;;;0.75;0.65;;;12.80;99.90;;;;;;5066964;28;20147;-79
2023/03/20 11:48:40;;;;;;;0.63;0.50;;;12.90;99.90;;;;;;5062869;28;20578;-79
2023/03/20 11:51:15;;;;;;;0.40;0.40;;;12.90;99.90;;;;;;5062444;28;20515;-79
2023/03/20 11:53:48;;;;;;;0.73;0.60;;;13.00;99.90;;;;;;5062447;28;20070;-79
2023/03/20 11:56:23;;;;;;;0.82;0.57;;;12.90;99.90;;;;;;5080518;28;20458;-78
2023/03/20 11:59:12;;;;;;;0.60;0.52;;;12.90;99.90;;;;;;5062791;28;20136;-79
2023/03/20 12:01:48;;;;;;;0.68;0.60;;;13.00;99.90;;;;;;5048656;28;20151;-78
2023/03/20 12:04:17;;;;;;;0.82;0.60;;;13.00;99.90;;;;;;5046546;28;20095;-79
2023/03/20 12:06:43;;;;;;;1.08;0.60;;;12.90;99.90;;;;;;5061667;28;20044;-79
2023/03/20 12:09:22;;;;;;;0.75;0.52;;;13.00;99.90;;;;;;5061819;28;20183;-80
2023/03/20 12:12:16;;;;;;;0.90;0.47;;;13.10;99.90;;;;;;5058689;28;20070;-79
2023/03/20 12:14:52;;;;;;;1.15;0.80;;;13.10;99.90;;;;;;5078101;28;20355;-79
2023/03/20 12:17:45;;;;;;;1.17;0.85;;;13.10;99.90;;;;;;5046533;28;20063;-79
2023/03/20 12:20:37;;;;;;;0.70;0.70;;;13.00;99.90;;;;;;5062270;28;20294;-79
2023/03/20 12:23:11;;;;;;;1.23;0.73;;;13.00;99.90;;;;;;5053318;28;20098;-79
2023/03/20 12:26:06;;;;;;;0.85;0.55;;;13.00;99.90;;;;;;5062005;28;20414;-78
2023/03/20 12:28:43;;;;;;;0.80;0.50;;;13.00;99.90;;;;;;5040900;28;20104;-79
2023/03/20 12:31:20;;;;;;;1.20;0.90;;;13.10;99.90;;;;;;5062165;28;20161;-79
2023/03/20 12:34:10;;;;;;;2.90;1.00;;;13.10;99.90;;;;;;5062772;28;20427;-79
2023/03/20 12:36:40;;;;;;;1.25;0.85;;;13.00;99.90;;;;;;5077142;28;20047;-79
2023/03/20 12:39:13;;;;;;;1.98;1.05;;;13.10;99.90;;;;;;5041996;28;20047;-80
2023/03/20 12:42:10;;;;;;;2.13;1.17;;;13.00;99.90;;;;;;5039875;28;20101;-79
2023/03/20 12:44:38;;;;;;;1.30;0.95;;;12.70;99.90;;;;;;5076890;28;20131;-85
2023/03/20 12:47:08;;;;;;;2.92;1.45;;;12.60;99.90;;;;;;5059256;28;20052;-79
2023/03/20 12:49:43;;;;;;;1.45;1.00;;;12.60;99.90;;;;;;5077390;28;20298;-79
2023/03/20 12:52:21;;;;;;;2.13;1.08;;;12.50;99.90;;;;;;5039611;28;20388;-79
2023/03/20 12:55:15;;;;;;;1.20;0.90;;;12.40;99.90;;;;;;5026012;28;20048;-79
2023/03/20 12:58:03;;;;;;;1.30;1.02;;;12.40;99.90;;;;;;5052634;28;20728;-79
2023/03/20 13:00:39;;;;;;;0.80;0.70;;;12.40;99.90;;;;;;5071923;28;20048;-79
2023/03/20 13:03:44;;;;;;;1.75;1.20;;;12.40;99.90;;;;;;5058403;28;20255;-79
2023/03/20 13:06:32;;;;;;;2.85;1.42;;;12.30;99.90;;;;;;4976389;28;20136;-78
2023/03/20 13:09:17;;;;;;;2.50;1.33;;;12.30;99.90;;;;;;4964950;28;20046;-79
2023/03/20 13:12:36;;;;;;;1.40;0.90;;;12.40;99.90;;;;;;5045503;28;20097;-79
2023/03/20 13:15:21;;;;;;;2.03;1.20;;;12.40;99.90;;;;;;4990331;28;20456;-79
2023/03/20 13:17:54;;;;;;;1.25;1.00;;;12.40;99.90;;;;;;5073589;28;20101;-79
2023/03/20 13:20:49;;;;;;;1.00;0.77;;;12.60;99.90;;;;;;5054154;28;20121;-79